createdAt,value
2018-04-16T00:00:26.213Z,41.47
2018-04-16T00:03:29.705Z,44.43
2018-04-16T00:06:33.109Z,43.27
2018-04-16T00:09:36.539Z,41.70
2018-04-16T00:12:39.896Z,43.07
2018-04-16T00:15:43.265Z,42.50
2018-04-16T00:18:46.624Z,43.03
2018-04-16T00:21:50.089Z,41.97
2018-04-16T00:24:53.451Z,44.07
2018-04-16T00:27:57.579Z,44.10
2018-04-16T00:31:00.931Z,44.83
2018-04-16T00:34:09.713Z,46.73
2018-04-16T00:37:19.438Z,45.50
2018-04-16T00:40:29.211Z,42.60
2018-04-16T00:43:38.995Z,43.40
2018-04-16T00:50:22.873Z,43.80
2018-04-16T00:53:50.073Z,44.70
2018-04-16T00:56:58.777Z,45.87
2018-04-16T01:00:07.660Z,44.87
2018-04-16T01:03:16.603Z,45.63
2018-04-16T01:06:25.435Z,43.17
2018-04-16T01:09:34.208Z,41.73
2018-04-16T01:12:43.201Z,42.77
2018-04-16T01:15:52.161Z,45.43
2018-04-16T01:19:01.009Z,50.17
2018-04-16T01:22:10.720Z,49.53
2018-04-16T01:25:19.490Z,52.47
2018-04-16T01:28:29.105Z,52.30
2018-04-16T01:31:38.048Z,55.10
2018-04-16T01:34:46.984Z,57.03
2018-04-16T01:37:55.975Z,51.90
2018-04-16T01:41:04.941Z,53.30
2018-04-16T01:44:13.875Z,56.10
2018-04-16T01:47:22.641Z,54.57
2018-04-16T01:50:31.641Z,62.80
2018-04-16T01:53:41.372Z,61.70
2018-04-16T01:56:50.281Z,61.40
2018-04-16T01:59:59.050Z,61.67
2018-04-16T02:03:08.922Z,66.47
2018-04-16T02:06:17.716Z,58.13
2018-04-16T02:09:27.419Z,56.33
2018-04-16T02:12:36.329Z,54.30
2018-04-16T02:15:45.278Z,56.20
2018-04-16T02:18:54.199Z,56.43
2018-04-16T02:22:02.971Z,52.53
2018-04-16T02:25:11.823Z,50.83
2018-04-16T02:28:21.677Z,55.13
2018-04-16T02:31:30.517Z,63.20
2018-04-16T02:34:39.336Z,56.77
2018-04-16T02:37:48.111Z,59.03
2018-04-16T02:40:57.075Z,57.90
2018-04-16T02:44:06.786Z,60.57
2018-04-16T02:47:15.544Z,61.70
2018-04-16T02:50:25.174Z,60.67
2018-04-16T02:53:34.224Z,54.87
2018-04-16T02:56:43.777Z,53.10
2018-04-16T02:59:53.587Z,50.93
2018-04-16T03:03:02.357Z,50.57
2018-04-16T03:06:12.063Z,50.57
2018-04-16T03:09:21.083Z,52.47
2018-04-16T03:12:29.953Z,52.10
2018-04-16T03:15:39.704Z,52.27
2018-04-16T03:18:49.441Z,51.90
2018-04-16T03:21:58.267Z,50.70
2018-04-16T03:25:07.090Z,55.47
2018-04-16T03:28:16.038Z,48.77
2018-04-16T03:31:25.661Z,48.37
2018-04-16T03:34:35.490Z,47.17
2018-04-16T03:37:44.322Z,45.33
2018-04-16T03:40:53.287Z,47.73
2018-04-16T03:44:02.980Z,42.90
2018-04-16T03:47:11.951Z,42.03
2018-04-16T03:50:20.913Z,40.73
2018-04-16T03:57:00.277Z,41.93
2018-04-16T04:00:03.628Z,43.03
2018-04-16T04:03:06.993Z,43.80
2018-04-16T04:06:10.420Z,40.50
2018-04-16T04:09:13.813Z,36.43
2018-04-16T04:12:17.149Z,37.07
2018-04-16T04:15:21.277Z,37.20
2018-04-16T04:18:25.404Z,38.17
2018-04-16T04:21:28.872Z,37.80
2018-04-16T04:24:50.168Z,36.13
2018-04-16T04:28:11.470Z,36.70
2018-04-16T04:31:14.871Z,33.87
2018-04-16T04:34:18.229Z,32.43
2018-04-16T04:37:22.429Z,35.20
2018-04-16T04:40:25.787Z,35.87
2018-04-16T04:43:29.235Z,34.93
2018-04-16T04:46:32.665Z,34.27
2018-04-16T04:49:36.051Z,34.10
2018-04-16T04:52:40.190Z,33.40
2018-04-16T04:55:43.553Z,31.83
2018-04-16T04:58:46.937Z,32.37
2018-04-16T05:01:51.055Z,31.53
2018-04-16T05:04:54.412Z,31.43
2018-04-16T05:07:57.767Z,33.23
2018-04-16T05:11:01.128Z,31.43
2018-04-16T05:14:04.471Z,30.93
2018-04-16T05:17:08.666Z,30.33
2018-04-16T05:20:12.027Z,30.47
2018-04-16T05:23:15.372Z,31.53
2018-04-16T05:26:19.496Z,30.60
2018-04-16T05:29:22.857Z,31.00
2018-04-16T05:32:26.240Z,45.03
2018-04-16T05:35:29.605Z,34.10
2018-04-16T05:38:33.728Z,32.83
2018-04-16T05:41:37.880Z,32.37
2018-04-16T05:44:41.259Z,35.73
2018-04-16T05:47:44.617Z,34.37
2018-04-16T05:50:47.978Z,32.10
2018-04-16T05:53:51.434Z,32.10
2018-04-16T05:56:55.592Z,33.83
2018-04-16T05:59:59.158Z,35.87
2018-04-16T06:03:03.286Z,35.27
2018-04-16T06:06:07.411Z,37.33
2018-04-16T06:09:10.783Z,38.33
2018-04-16T06:12:14.976Z,39.20
2018-04-16T06:15:18.447Z,41.77
2018-04-16T06:18:22.051Z,41.73
2018-04-16T06:21:25.456Z,41.07
2018-04-16T06:24:28.825Z,40.27
2018-04-16T06:27:33.154Z,42.67
2018-04-16T06:30:36.511Z,43.80
2018-04-16T06:33:39.894Z,45.93
2018-04-16T06:36:43.252Z,46.50
2018-04-16T06:39:46.632Z,47.07
2018-04-16T06:42:50.759Z,48.90
2018-04-16T06:45:54.917Z,47.33
2018-04-16T06:48:58.312Z,44.40
2018-04-16T06:52:01.805Z,46.87
2018-04-16T06:55:05.340Z,46.10
2018-04-16T06:58:08.700Z,47.13
2018-04-16T07:01:12.054Z,45.70
2018-04-16T07:04:15.455Z,44.50
2018-04-16T07:07:18.833Z,46.43
2018-04-16T07:10:22.213Z,44.17
2018-04-16T07:13:25.577Z,46.20
2018-04-16T07:16:29.726Z,44.87
2018-04-16T07:19:33.104Z,49.77
2018-04-16T07:22:36.475Z,51.27
2018-04-16T07:25:39.832Z,52.50
2018-04-16T07:28:43.224Z,53.10
2018-04-16T07:31:46.580Z,53.67
2018-04-16T07:34:50.905Z,52.10
2018-04-16T07:37:55.065Z,49.93
2018-04-16T07:40:58.436Z,48.10
2018-04-16T07:44:01.796Z,47.50
2018-04-16T07:47:05.953Z,50.33
2018-04-16T07:50:09.404Z,48.43
2018-04-16T07:53:12.923Z,47.97
2018-04-16T07:56:16.353Z,44.77
2018-04-16T07:59:20.487Z,45.03
2018-04-16T08:02:23.856Z,46.07
2018-04-16T08:05:28.027Z,42.97
2018-04-16T08:08:31.469Z,42.27
2018-04-16T08:11:35.605Z,40.47
2018-04-16T08:14:39.006Z,39.70
2018-04-16T08:17:42.371Z,38.80
2018-04-16T08:20:45.756Z,39.37
2018-04-16T08:23:49.135Z,37.20
2018-04-16T08:26:52.503Z,41.30
2018-04-16T08:29:55.867Z,38.93
2018-04-16T08:32:59.415Z,40.53
2018-04-16T08:36:02.789Z,38.87
2018-04-16T08:39:07.025Z,38.40
2018-04-16T08:42:10.397Z,38.67
2018-04-16T08:45:13.776Z,36.97
2018-04-16T08:48:17.191Z,39.37
2018-04-16T08:51:20.553Z,39.57
2018-04-16T08:54:24.024Z,38.90
2018-04-16T08:57:27.397Z,38.07
2018-04-16T09:00:30.779Z,36.40
2018-04-16T09:03:34.158Z,36.17
2018-04-16T09:06:37.511Z,37.20
2018-04-16T09:09:41.661Z,38.53
2018-04-16T09:12:45.023Z,36.33
2018-04-16T09:15:49.154Z,35.13
2018-04-16T09:18:52.516Z,37.07
2018-04-16T09:21:55.973Z,34.07
2018-04-16T09:24:59.542Z,35.70
2018-04-16T09:28:03.704Z,36.43
2018-04-16T09:31:07.207Z,35.87
2018-04-16T09:34:10.580Z,35.07
2018-04-16T09:37:13.933Z,35.37
2018-04-16T09:40:17.292Z,35.03
2018-04-16T09:43:20.662Z,34.77
2018-04-16T09:46:24.800Z,35.63
2018-04-16T09:49:28.168Z,33.07
2018-04-16T09:52:31.559Z,33.13
2018-04-16T09:55:35.014Z,32.83
2018-04-16T09:58:38.393Z,32.43
2018-04-16T10:01:41.828Z,32.67
2018-04-16T10:04:45.230Z,33.97
2018-04-16T10:07:48.605Z,33.37
2018-04-16T10:10:51.970Z,33.50
2018-04-16T10:13:55.363Z,34.23
2018-04-16T10:16:58.906Z,32.90
2018-04-16T10:20:02.331Z,33.07
2018-04-16T10:23:05.704Z,32.60
2018-04-16T10:26:09.189Z,33.13
2018-04-16T10:29:13.415Z,32.53
2018-04-16T10:32:16.798Z,33.40
2018-04-16T10:35:20.931Z,35.83
2018-04-16T10:38:25.072Z,33.60
2018-04-16T10:41:28.435Z,32.17
2018-04-16T10:44:32.595Z,32.67
2018-04-16T10:47:35.970Z,31.30
2018-04-16T10:50:39.508Z,31.13
2018-04-16T10:53:42.924Z,33.17
2018-04-16T10:56:46.287Z,31.67
2018-04-16T10:59:49.760Z,30.87
2018-04-16T11:02:53.899Z,31.67
2018-04-16T11:05:57.292Z,30.43
2018-04-16T11:09:00.645Z,30.70
2018-04-16T11:12:04.009Z,32.93
2018-04-16T11:15:07.390Z,32.03
2018-04-16T11:18:10.798Z,30.23
2018-04-16T11:21:14.184Z,30.17
2018-04-16T11:24:17.554Z,30.70
2018-04-16T11:27:20.954Z,31.80
2018-04-16T11:30:24.335Z,31.53
2018-04-16T11:33:27.710Z,31.53
2018-04-16T11:36:31.107Z,32.33
2018-04-16T11:39:34.598Z,31.20
2018-04-16T11:42:37.960Z,28.70
2018-04-16T11:45:41.383Z,29.43
2018-04-16T11:48:44.755Z,31.33
2018-04-16T11:51:48.119Z,31.33
2018-04-16T11:54:51.568Z,30.27
2018-04-16T11:57:55.731Z,31.40
2018-04-16T12:00:59.105Z,31.83
2018-04-16T12:04:02.643Z,30.30
2018-04-16T12:07:06.022Z,30.20
2018-04-16T12:10:09.628Z,30.17
2018-04-16T12:13:12.999Z,32.33
2018-04-16T12:16:17.146Z,31.73
2018-04-16T12:19:20.536Z,33.03
2018-04-16T12:22:23.970Z,32.87
2018-04-16T12:25:27.317Z,33.70
2018-04-16T12:28:31.630Z,33.77
2018-04-16T12:31:35.775Z,32.00
2018-04-16T12:34:44.809Z,32.60
2018-04-16T12:37:48.192Z,33.67
2018-04-16T12:40:57.028Z,32.63
2018-04-16T12:44:06.194Z,33.63
2018-04-16T12:47:09.576Z,32.33
2018-04-16T12:50:24.215Z,33.30
2018-04-16T12:53:27.591Z,33.87
2018-04-16T12:56:31.074Z,35.07
2018-04-16T12:59:34.474Z,35.03
2018-04-16T13:02:37.859Z,33.03
2018-04-16T13:05:41.293Z,35.07
2018-04-16T13:08:44.697Z,32.97
2018-04-16T13:11:48.087Z,36.73
2018-04-16T13:14:51.456Z,34.43
2018-04-16T13:18:00.646Z,35.87
2018-04-16T13:21:10.751Z,35.77
2018-04-16T13:24:20.058Z,37.03
2018-04-16T13:27:29.251Z,40.10
2018-04-16T13:30:38.552Z,39.50
2018-04-16T13:33:41.945Z,37.40
2018-04-16T13:36:51.330Z,39.80
2018-04-16T13:40:06.470Z,38.70
2018-04-16T13:43:09.855Z,39.30
2018-04-16T13:46:13.321Z,37.17
2018-04-16T13:49:23.563Z,36.00
2018-04-16T13:52:26.948Z,38.77
2018-04-16T13:55:30.416Z,37.67
2018-04-16T13:58:33.823Z,36.23
2018-04-16T14:01:43.001Z,35.50
2018-04-16T14:04:46.481Z,35.13
2018-04-16T14:07:55.774Z,35.20
2018-04-16T14:11:11.145Z,35.53
2018-04-16T14:14:21.384Z,34.40
2018-04-16T14:17:24.760Z,37.57
2018-04-16T14:20:40.197Z,35.23
2018-04-16T14:23:49.643Z,36.57
2018-04-16T14:26:53.135Z,36.93
2018-04-16T14:30:02.959Z,35.30
2018-04-16T14:33:06.343Z,33.93
2018-04-16T14:36:15.469Z,33.93
2018-04-16T14:39:24.782Z,33.57
2018-04-16T14:42:34.307Z,33.70
2018-04-16T14:45:37.732Z,31.50
2018-04-16T14:48:41.126Z,31.50
2018-04-16T14:51:55.875Z,36.33
2018-04-16T14:54:59.255Z,34.23
2018-04-16T14:58:03.410Z,33.30
2018-04-16T15:01:12.635Z,34.80
2018-04-16T15:04:15.992Z,32.93
2018-04-16T15:07:25.245Z,34.67
2018-04-16T15:10:40.860Z,35.07
2018-04-16T15:13:44.219Z,36.43
2018-04-16T15:16:53.495Z,33.77
2018-04-16T15:19:56.893Z,35.90
2018-04-16T15:23:00.260Z,35.43
2018-04-16T15:26:03.640Z,34.37
2018-04-16T15:29:07.037Z,34.87
2018-04-16T15:32:10.431Z,36.57
2018-04-16T15:35:13.818Z,36.50
2018-04-16T15:38:17.184Z,32.73
2018-04-16T15:41:20.537Z,33.83
2018-04-16T15:44:23.942Z,34.00
2018-04-16T15:47:27.297Z,34.33
2018-04-16T15:50:30.674Z,35.03
2018-04-16T15:53:34.852Z,34.67
2018-04-16T15:56:38.389Z,32.70
2018-04-16T15:59:42.622Z,30.13
2018-04-16T16:02:46.004Z,29.90
2018-04-16T16:05:50.143Z,29.40
2018-04-16T16:08:53.565Z,32.07
2018-04-16T16:11:56.943Z,30.83
2018-04-16T16:15:00.333Z,31.00
2018-04-16T16:18:03.762Z,31.53
2018-04-16T16:21:07.168Z,32.17
2018-04-16T16:24:10.574Z,30.87
2018-04-16T16:27:13.964Z,30.80
2018-04-16T16:30:17.473Z,29.53
2018-04-16T16:33:20.858Z,30.50
2018-04-16T16:36:24.268Z,31.83
2018-04-16T16:39:27.881Z,27.37
2018-04-16T16:42:31.443Z,22.50
2018-04-16T16:45:35.872Z,17.63
2018-04-16T16:48:39.240Z,13.20
2018-04-16T16:51:42.642Z,13.10
2018-04-16T16:54:46.035Z,11.07
2018-04-16T16:57:49.488Z,10.80
2018-04-16T17:00:52.894Z,11.37
2018-04-16T17:03:56.310Z,8.90
2018-04-16T17:06:59.701Z,9.37
2018-04-16T17:10:03.084Z,9.83
2018-04-16T17:13:06.464Z,9.93
2018-04-16T17:16:10.599Z,9.90
2018-04-16T17:19:13.977Z,11.17
2018-04-16T17:22:18.121Z,12.13
2018-04-16T17:25:21.508Z,12.87
2018-04-16T17:28:24.892Z,13.77
2018-04-16T17:31:29.134Z,13.67
2018-04-16T17:34:33.255Z,14.47
2018-04-16T17:37:36.629Z,14.27
2018-04-16T17:40:40.821Z,14.47
2018-04-16T17:43:44.200Z,13.47
2018-04-16T17:46:47.783Z,13.40
2018-04-16T17:49:51.161Z,14.10
2018-04-16T17:52:54.560Z,14.90
2018-04-16T17:55:57.995Z,14.13
2018-04-16T17:59:01.396Z,14.93
2018-04-16T18:02:04.806Z,14.97
2018-04-16T18:05:08.218Z,15.73
2018-04-16T18:08:11.644Z,15.07
2018-04-16T18:11:15.827Z,15.23
2018-04-16T18:14:19.232Z,15.70
2018-04-16T18:17:22.618Z,14.87
2018-04-16T18:20:26.026Z,14.63
2018-04-16T18:23:29.471Z,14.20
2018-04-16T18:26:33.662Z,15.73
2018-04-16T18:29:37.206Z,15.07
2018-04-16T18:32:40.589Z,14.13
2018-04-16T18:35:44.746Z,13.53
2018-04-16T18:38:48.112Z,12.83
2018-04-16T18:41:52.256Z,11.73
2018-04-16T18:44:55.640Z,11.33
2018-04-16T18:47:59.020Z,11.47
2018-04-16T18:51:02.444Z,10.37
2018-04-16T18:54:05.830Z,9.07
2018-04-16T18:57:09.981Z,8.43
2018-04-16T19:00:13.508Z,5.63
2018-04-16T19:03:16.896Z,5.60
2018-04-16T19:06:20.365Z,5.60
2018-04-16T19:09:23.797Z,5.27
2018-04-16T19:12:27.298Z,5.60
2018-04-16T19:15:30.784Z,5.50
2018-04-16T19:18:34.367Z,5.67
2018-04-16T19:21:43.370Z,5.97
2018-04-16T19:24:46.758Z,6.93
2018-04-16T19:27:55.526Z,6.60
2018-04-16T19:30:58.896Z,6.37
2018-04-16T19:34:07.827Z,6.87
2018-04-16T19:37:11.184Z,7.13
2018-04-16T19:40:14.577Z,7.27
2018-04-16T19:43:17.953Z,7.57
2018-04-16T19:46:21.293Z,8.10
2018-04-16T19:49:30.250Z,8.47
2018-04-16T19:52:33.700Z,8.87
2018-04-16T19:55:43.291Z,9.67
2018-04-16T19:58:46.676Z,10.23
2018-04-16T20:01:55.650Z,10.23
2018-04-16T20:04:59.797Z,10.40
2018-04-16T20:08:03.188Z,9.30
2018-04-16T20:11:06.573Z,10.77
2018-04-16T20:14:09.937Z,10.67
2018-04-16T20:17:13.342Z,9.87
2018-04-16T20:20:16.708Z,9.43
2018-04-16T20:23:20.107Z,10.30
2018-04-16T20:26:23.494Z,10.47
2018-04-16T20:29:26.893Z,10.93
2018-04-16T20:32:30.276Z,10.70
2018-04-16T20:35:33.672Z,10.57
2018-04-16T20:38:37.063Z,10.90
2018-04-16T20:41:41.192Z,11.50
2018-04-16T20:44:44.552Z,10.83
2018-04-16T20:47:47.890Z,10.83
2018-04-16T20:50:51.263Z,11.93
2018-04-16T20:53:54.626Z,12.40
2018-04-16T20:56:57.995Z,12.13
2018-04-16T21:00:01.376Z,12.23
2018-04-16T21:03:05.496Z,11.60
2018-04-16T21:06:09.776Z,12.00
2018-04-16T21:09:13.170Z,12.60
2018-04-16T21:12:16.556Z,12.37
2018-04-16T21:15:19.934Z,13.50
2018-04-16T21:18:23.301Z,14.20
2018-04-16T21:21:27.434Z,14.10
2018-04-16T21:24:30.821Z,13.90
2018-04-16T21:27:35.058Z,13.40
2018-04-16T21:30:38.502Z,13.57
2018-04-16T21:33:41.871Z,13.97
2018-04-16T21:36:45.219Z,12.33
2018-04-16T21:39:48.736Z,18.03
2018-04-16T21:42:52.848Z,43.60
2018-04-16T21:45:56.237Z,13.37
2018-04-16T21:48:59.636Z,11.63
2018-04-16T21:52:03.068Z,12.57
2018-04-16T21:55:06.429Z,12.73
2018-04-16T21:58:09.854Z,13.07
2018-04-16T22:01:14.009Z,13.70
2018-04-16T22:04:17.388Z,13.10
2018-04-16T22:07:20.982Z,15.10
2018-04-16T22:10:25.114Z,14.73
2018-04-16T22:13:28.937Z,15.43
2018-04-16T22:16:32.363Z,14.20
2018-04-16T22:19:35.773Z,15.97
2018-04-16T22:22:39.208Z,15.80
2018-04-16T22:25:42.585Z,16.87
2018-04-16T22:28:46.223Z,16.10
2018-04-16T22:31:49.592Z,16.77
2018-04-16T22:34:53.029Z,16.70
2018-04-16T22:37:56.487Z,17.73
2018-04-16T22:40:59.873Z,17.07
2018-04-16T22:44:03.218Z,17.30
2018-04-16T22:47:06.595Z,17.20
2018-04-16T22:50:09.981Z,18.30
2018-04-16T22:53:13.344Z,18.70
2018-04-16T22:56:16.719Z,18.70
2018-04-16T22:59:20.087Z,20.27
2018-04-16T23:02:23.453Z,20.00
2018-04-16T23:05:26.926Z,20.10
2018-04-16T23:08:30.320Z,19.90
2018-04-16T23:11:33.683Z,20.40
2018-04-16T23:14:37.063Z,19.17
2018-04-16T23:17:40.477Z,21.03
2018-04-16T23:20:44.639Z,19.13
2018-04-16T23:23:48.034Z,21.10
2018-04-16T23:26:52.165Z,21.00
2018-04-16T23:29:55.532Z,21.43
2018-04-16T23:32:59.674Z,20.20
2018-04-16T23:36:03.039Z,20.23
2018-04-16T23:39:07.288Z,23.43
2018-04-16T23:42:10.763Z,22.70
2018-04-16T23:45:14.671Z,22.80
2018-04-16T23:48:18.028Z,22.23
2018-04-16T23:51:21.394Z,21.83
2018-04-16T23:54:25.639Z,20.50
2018-04-16T23:57:29.044Z,20.17
